Orangeburg Municipal Airport Orangeburg US
ICAO: KOGB
IATA: OGB
Category: Medium
Scheduled Services: No

Elevation: 195 ft
TransAlt. 18000 ft.

Airport Communications:
COLUMBIA APP/DEP:124.15
ASOS:118.525
CTAF/UNICOM:122.7

KOGB Zoom In..

If you have problems with the map follow the link
https://www.worldairports.se/pages/airport.php?
ICAO=KOGB

Runways:

(A) RW 05 length 4508 ft width 100 ft
---- / hdg 49

(B) RW 17 length 5399 ft width 100 ft
---- / hdg 174

(C) RW 23 length 4508 ft width 100 ft
---- / hdg 229

(D) RW 35 length 5399 ft width 100 ft
---- / hdg 354

Location; KOGB
Day. 12 / Time. 11.53 Zulu
* Altimeter: 30.56
* Temperature: 01° c. 33.8°f.
* Wind from: 040° Speed 05 kn.
Dewpoint: -04° c.
Visibility: 10 Statute Miles.
Clouds: Clear (automated report).

KOGB 121153Z AUTO 04005KT 10SM CLR 01/M04 A3056 RMK AO2 SLP350 T00111039 10022 20011 53009


Wind From 040°
Speed 05 kn.

 
 
jpsmedia worldairports.se 2019   terms of use